• Join FlightAware (Why Join?)
  • Login
  • US Flag 
01:47PM EDT


 

Airport Tracker/Info


-or-


 

Live Flight TrackerFlight Track Log ✈ N735YG ✈ 27-Apr-2013 ✈ KHHG - KBTL

Flight Track Log - Related Links

Times and Time Zones

All times are in EDT time to prevent confusion due to time zone crossing. See the N735YG flight status page for this flight to view local times or setup timezone preferences in your user account.

Time Position Orientation Groundspeed Altitude Reporting Facility
EDT Latitude Longitude Course Direction KTS MPH feet Rate Location/Type
05:06PM 40.9978 -85.4100 North 120 138 5,000  Level Chicago Center
05:07PM 41.0308 -85.4067 North 120 138 5,400 240 Climbing Chicago Center
05:08PM 41.0717 -85.4014 North 132 152 5,500  Climbing Chicago Center
05:09PM 41.0626 -85.4278 North  Level Estimated
05:09PM 41.1128 -85.3911 11° North 143 165 5,500  Level Chicago Center
05:10PM 41.1045 -85.4219 North  Level Estimated
05:10PM 41.1628 -85.3850 North 148 170 5,500  Level Chicago Center
05:11PM 41.1464 -85.4160 North  Level Estimated
05:11PM 41.2025 -85.3814 North 147 169 5,500  Level Chicago Center
05:12PM 41.2414 -85.3753 North 144 166 5,500  Level Chicago Center
05:13PM 41.2808 -85.3711 North 143 165 5,500  Level Chicago Center
05:14PM 41.3211 -85.3661 North 144 166 5,500  Level Chicago Center
05:15PM 41.3614 -85.3639 North 144 166 5,500  Level Chicago Center
05:16PM 41.4022 -85.3578 North 146 168 5,500  Level Chicago Center
05:17PM 41.4514 -85.3533 North 147 169 5,500  Level Chicago Center
05:18PM 41.4928 -85.3464 North 149 171 5,500  Level Chicago Center
05:19PM 41.5319 -85.3414 North 147 169 5,500  Level Chicago Center
05:20PM 41.5725 -85.3372 North 146 168 5,500  Level Chicago Center
05:21PM 41.6119 -85.3342 North 145 167 5,500  Level Chicago Center
05:22PM 41.6603 -85.3264 North 147 169 5,500  Level Chicago Center
05:23PM 41.7006 -85.3206 North 147 169 5,500  Level Chicago Center
05:24PM 41.7408 -85.3178 North 147 169 5,500  Level Chicago Center
05:25PM 41.7803 -85.3128 North 145 167 5,500  Level Chicago Center
05:26PM 41.8208 -85.3094 North 146 168 5,500  Level Chicago Center
05:27PM 41.8606 -85.3053 North 145 167 5,500  Level Chicago Center
05:28PM 41.9008 -85.2994 North 145 167 5,500 -120 Level Chicago Center
05:29PM 41.9508 -85.2933 North 149 171 5,300 -240 Descending Chicago Center
05:30PM 41.9933 -85.2889 North 153 176 5,100 -300 Descending Chicago Center
05:31PM 42.0358 -85.2836 North 154 177 4,800 -300 Descending Chicago Center
05:32PM 42.0778 -85.2783 North 152 175 4,500 -300 Descending Chicago Center
05:33PM 42.1194 -85.2722 North 152 175 4,200 -360 Descending Chicago Center
05:34PM 42.1614 -85.2694 North 151 174 3,800 -540 Descending Chicago Center
05:36PM 42.2019 -85.2650 North 149 171 3,200 -540 Descending Chicago Center
05:37PM 42.2486 -85.2600 North 143 165 2,800 -660 Descending Chicago Center
05:38PM 42.2828 -85.2542 North 134 154 1,900 -540 Descending Chicago Center
05:39PM 42.3039 -85.2208 49° Northeast 124 143 1,800 -240 Descending Chicago Center
05:40PM 42.3269 -85.2311 342° North 109 125 1,500 -300 Descending Chicago Center
05:42PM 42.3000 -85.2500 236° Southwest  Level FlightAware Approximate